Terminal Aerodrome Forecast
Issued by NWS

Home | Current Version | Previous Version | Text Only | Print | Product List | Glossary Off
Versions: 1 2 3 4 5 6 7 8 9 10 11

430
FTUS44 KTSA 260520
TAFMLC
TAF
KMLC 260520Z 2606/2706 17011G19KT P6SM -TSRA BKN035CB BKN250
      TEMPO 2606/2608 VRB15G30KT 1SM TSRA BKN025CB
     FM260800 VRB13KT P6SM VCTS SCT025 BKN035CB
     FM261000 32013KT 4SM -SHRA VCTS SCT008 BKN015CB
     FM261500 34014G22KT P6SM VCSH BKN012
     FM262300 32011KT P6SM BKN025
     FM270200 26005KT P6SM SCT035=

USA.gov is the U.S. government's official web portal to all federal, state and local government web resources and services.